sensor_id;sensor_type;location;lat;lon;timestamp;P1;durP1;ratioP1;P2;durP2;ratioP2
24030;SDS011;12240;51.142;22.486;2023-04-29T00:01:50;31.33;;;9.75;;
24030;SDS011;12240;51.142;22.486;2023-04-29T00:04:18;26.10;;;8.65;;
24030;SDS011;12240;51.142;22.486;2023-04-29T00:06:46;25.13;;;8.85;;
24030;SDS011;12240;51.142;22.486;2023-04-29T00:09:14;28.35;;;8.23;;
24030;SDS011;12240;51.142;22.486;2023-04-29T00:11:42;48.22;;;9.65;;
24030;SDS011;12240;51.142;22.486;2023-04-29T00:14:11;39.70;;;8.65;;
24030;SDS011;12240;51.142;22.486;2023-04-29T00:16:40;35.95;;;9.20;;
24030;SDS011;12240;51.142;22.486;2023-04-29T00:19:08;22.02;;;7.95;;
24030;SDS011;12240;51.142;22.486;2023-04-29T00:21:36;19.23;;;7.28;;
24030;SDS011;12240;51.142;22.486;2023-04-29T00:24:04;23.23;;;7.30;;
24030;SDS011;12240;51.142;22.486;2023-04-29T00:26:33;19.15;;;6.72;;
24030;SDS011;12240;51.142;22.486;2023-04-29T00:29:01;25.85;;;7.47;;
24030;SDS011;12240;51.142;22.486;2023-04-29T00:31:29;25.05;;;7.15;;
24030;SDS011;12240;51.142;22.486;2023-04-29T00:33:59;25.67;;;7.70;;
24030;SDS011;12240;51.142;22.486;2023-04-29T00:36:27;23.55;;;7.80;;
24030;SDS011;12240;51.142;22.486;2023-04-29T00:38:55;35.28;;;9.05;;
24030;SDS011;12240;51.142;22.486;2023-04-29T00:41:24;34.58;;;8.68;;
24030;SDS011;12240;51.142;22.486;2023-04-29T00:43:53;28.17;;;9.65;;
24030;SDS011;12240;51.142;22.486;2023-04-29T00:46:21;23.33;;;7.55;;
24030;SDS011;12240;51.142;22.486;2023-04-29T00:48:49;28.95;;;8.88;;
24030;SDS011;12240;51.142;22.486;2023-04-29T00:51:17;23.02;;;7.55;;
24030;SDS011;12240;51.142;22.486;2023-04-29T00:53:45;27.10;;;8.32;;
24030;SDS011;12240;51.142;22.486;2023-04-29T00:56:15;25.45;;;7.38;;
24030;SDS011;12240;51.142;22.486;2023-04-29T00:58:46;33.83;;;8.68;;
24030;SDS011;12240;51.142;22.486;2023-04-29T01:01:16;24.20;;;7.13;;
24030;SDS011;12240;51.142;22.486;2023-04-29T01:03:46;25.42;;;7.88;;
24030;SDS011;12240;51.142;22.486;2023-04-29T01:12:30;22.27;;;7.07;;
24030;SDS011;12240;51.142;22.486;2023-04-29T01:20:43;54.70;;;9.63;;
24030;SDS011;12240;51.142;22.486;2023-04-29T01:23:12;45.90;;;9.00;;
24030;SDS011;12240;51.142;22.486;2023-04-29T01:25:41;51.35;;;8.98;;
24030;SDS011;12240;51.142;22.486;2023-04-29T01:31:02;40.92;;;7.43;;
24030;SDS011;12240;51.142;22.486;2023-04-29T01:43:00;47.53;;;9.30;;
24030;SDS011;12240;51.142;22.486;2023-04-29T01:45:32;36.10;;;7.32;;
24030;SDS011;12240;51.142;22.486;2023-04-29T01:48:04;35.47;;;7.25;;
24030;SDS011;12240;51.142;22.486;2023-04-29T01:50:34;37.45;;;7.32;;
24030;SDS011;12240;51.142;22.486;2023-04-29T01:53:10;36.45;;;7.03;;
24030;SDS011;12240;51.142;22.486;2023-04-29T01:55:39;43.15;;;8.50;;
24030;SDS011;12240;51.142;22.486;2023-04-29T01:58:19;43.58;;;7.90;;
24030;SDS011;12240;51.142;22.486;2023-04-29T02:01:07;32.83;;;7.80;;
24030;SDS011;12240;51.142;22.486;2023-04-29T02:03:37;35.88;;;7.93;;
24030;SDS011;12240;51.142;22.486;2023-04-29T02:06:09;50.63;;;9.45;;
24030;SDS011;12240;51.142;22.486;2023-04-29T02:08:37;42.00;;;8.13;;
24030;SDS011;12240;51.142;22.486;2023-04-29T02:11:05;41.78;;;8.50;;
24030;SDS011;12240;51.142;22.486;2023-04-29T02:13:38;39.80;;;7.82;;
24030;SDS011;12240;51.142;22.486;2023-04-29T02:16:11;36.20;;;7.25;;
24030;SDS011;12240;51.142;22.486;2023-04-29T02:19:02;39.90;;;7.40;;
24030;SDS011;12240;51.142;22.486;2023-04-29T02:21:30;45.92;;;8.13;;
24030;SDS011;12240;51.142;22.486;2023-04-29T02:24:00;34.00;;;7.78;;
24030;SDS011;12240;51.142;22.486;2023-04-29T02:26:28;35.25;;;7.45;;
24030;SDS011;12240;51.142;22.486;2023-04-29T02:28:56;50.45;;;9.52;;
24030;SDS011;12240;51.142;22.486;2023-04-29T02:31:26;42.40;;;8.80;;
24030;SDS011;12240;51.142;22.486;2023-04-29T02:33:55;57.45;;;10.30;;
24030;SDS011;12240;51.142;22.486;2023-04-29T02:36:24;49.28;;;9.15;;
24030;SDS011;12240;51.142;22.486;2023-04-29T02:38:52;52.60;;;9.80;;
24030;SDS011;12240;51.142;22.486;2023-04-29T02:41:22;37.20;;;8.18;;
24030;SDS011;12240;51.142;22.486;2023-04-29T02:43:51;49.67;;;9.55;;
24030;SDS011;12240;51.142;22.486;2023-04-29T02:46:21;31.17;;;7.65;;
24030;SDS011;12240;51.142;22.486;2023-04-29T02:48:50;57.92;;;10.45;;
24030;SDS011;12240;51.142;22.486;2023-04-29T02:51:18;56.33;;;11.00;;
24030;SDS011;12240;51.142;22.486;2023-04-29T02:53:48;67.07;;;11.98;;
24030;SDS011;12240;51.142;22.486;2023-04-29T02:56:16;43.65;;;8.98;;
24030;SDS011;12240;51.142;22.486;2023-04-29T02:58:44;46.47;;;9.27;;
24030;SDS011;12240;51.142;22.486;2023-04-29T03:01:12;43.60;;;9.07;;
24030;SDS011;12240;51.142;22.486;2023-04-29T03:03:41;44.00;;;9.07;;
24030;SDS011;12240;51.142;22.486;2023-04-29T03:06:09;44.40;;;8.32;;
24030;SDS011;12240;51.142;22.486;2023-04-29T03:08:38;31.50;;;7.72;;
24030;SDS011;12240;51.142;22.486;2023-04-29T03:11:06;31.48;;;7.63;;
24030;SDS011;12240;51.142;22.486;2023-04-29T03:13:34;46.08;;;9.00;;
24030;SDS011;12240;51.142;22.486;2023-04-29T03:16:05;60.15;;;9.40;;
24030;SDS011;12240;51.142;22.486;2023-04-29T03:18:34;46.55;;;7.95;;
24030;SDS011;12240;51.142;22.486;2023-04-29T03:21:04;42.85;;;7.45;;
24030;SDS011;12240;51.142;22.486;2023-04-29T03:23:32;42.50;;;7.45;;
24030;SDS011;12240;51.142;22.486;2023-04-29T03:26:01;45.45;;;7.95;;
24030;SDS011;12240;51.142;22.486;2023-04-29T03:28:30;53.47;;;8.35;;
24030;SDS011;12240;51.142;22.486;2023-04-29T03:30:58;54.33;;;8.70;;
24030;SDS011;12240;51.142;22.486;2023-04-29T03:33:26;48.10;;;8.38;;
24030;SDS011;12240;51.142;22.486;2023-04-29T03:35:54;61.00;;;9.63;;
24030;SDS011;12240;51.142;22.486;2023-04-29T03:38:22;44.28;;;8.20;;
24030;SDS011;12240;51.142;22.486;2023-04-29T03:40:53;57.60;;;9.53;;
24030;SDS011;12240;51.142;22.486;2023-04-29T03:43:22;38.95;;;8.07;;
24030;SDS011;12240;51.142;22.486;2023-04-29T03:45:50;60.67;;;9.90;;
24030;SDS011;12240;51.142;22.486;2023-04-29T03:48:21;45.53;;;8.07;;
24030;SDS011;12240;51.142;22.486;2023-04-29T03:50:51;61.50;;;9.82;;
24030;SDS011;12240;51.142;22.486;2023-04-29T03:53:19;48.38;;;8.52;;
24030;SDS011;12240;51.142;22.486;2023-04-29T03:55:48;66.90;;;10.52;;
24030;SDS011;12240;51.142;22.486;2023-04-29T03:58:17;40.72;;;8.02;;
24030;SDS011;12240;51.142;22.486;2023-04-29T04:00:45;65.97;;;10.55;;
24030;SDS011;12240;51.142;22.486;2023-04-29T04:03:19;49.63;;;7.93;;
24030;SDS011;12240;51.142;22.486;2023-04-29T04:05:49;46.47;;;8.55;;
24030;SDS011;12240;51.142;22.486;2023-04-29T04:08:17;37.38;;;7.80;;
24030;SDS011;12240;51.142;22.486;2023-04-29T04:10:51;60.85;;;9.93;;
24030;SDS011;12240;51.142;22.486;2023-04-29T04:13:42;52.75;;;9.95;;
24030;SDS011;12240;51.142;22.486;2023-04-29T04:16:10;53.95;;;9.32;;
24030;SDS011;12240;51.142;22.486;2023-04-29T04:18:39;48.55;;;8.98;;
24030;SDS011;12240;51.142;22.486;2023-04-29T04:21:08;43.55;;;8.32;;
24030;SDS011;12240;51.142;22.486;2023-04-29T04:23:41;47.78;;;8.77;;
24030;SDS011;12240;51.142;22.486;2023-04-29T04:26:13;67.25;;;10.48;;
24030;SDS011;12240;51.142;22.486;2023-04-29T04:28:50;65.22;;;10.85;;
24030;SDS011;12240;51.142;22.486;2023-04-29T04:31:39;51.75;;;9.30;;
24030;SDS011;12240;51.142;22.486;2023-04-29T04:34:11;51.03;;;8.27;;
24030;SDS011;12240;51.142;22.486;2023-04-29T04:36:40;49.70;;;8.88;;
24030;SDS011;12240;51.142;22.486;2023-04-29T04:39:08;53.65;;;9.65;;
24030;SDS011;12240;51.142;22.486;2023-04-29T04:41:37;44.83;;;8.30;;
24030;SDS011;12240;51.142;22.486;2023-04-29T04:44:05;40.45;;;7.03;;
24030;SDS011;12240;51.142;22.486;2023-04-29T04:46:56;59.00;;;8.80;;
24030;SDS011;12240;51.142;22.486;2023-04-29T04:49:43;52.47;;;9.40;;
24030;SDS011;12240;51.142;22.486;2023-04-29T04:52:12;46.72;;;9.18;;
24030;SDS011;12240;51.142;22.486;2023-04-29T04:54:47;121.25;;;17.52;;
24030;SDS011;12240;51.142;22.486;2023-04-29T04:57:21;43.90;;;8.20;;
24030;SDS011;12240;51.142;22.486;2023-04-29T04:59:49;53.80;;;9.43;;
24030;SDS011;12240;51.142;22.486;2023-04-29T05:02:17;53.50;;;9.50;;
24030;SDS011;12240;51.142;22.486;2023-04-29T05:04:46;45.85;;;8.68;;
24030;SDS011;12240;51.142;22.486;2023-04-29T05:07:17;44.47;;;8.55;;
24030;SDS011;12240;51.142;22.486;2023-04-29T05:10:03;30.38;;;6.40;;
24030;SDS011;12240;51.142;22.486;2023-04-29T05:12:37;43.25;;;8.02;;
24030;SDS011;12240;51.142;22.486;2023-04-29T05:15:06;34.63;;;7.25;;
24030;SDS011;12240;51.142;22.486;2023-04-29T05:17:35;32.08;;;7.20;;
24030;SDS011;12240;51.142;22.486;2023-04-29T05:20:04;39.58;;;8.30;;
24030;SDS011;12240;51.142;22.486;2023-04-29T05:22:33;35.17;;;7.78;;
24030;SDS011;12240;51.142;22.486;2023-04-29T05:25:02;31.17;;;7.10;;
24030;SDS011;12240;51.142;22.486;2023-04-29T05:27:33;37.17;;;8.52;;
24030;SDS011;12240;51.142;22.486;2023-04-29T05:30:04;23.80;;;6.75;;
24030;SDS011;12240;51.142;22.486;2023-04-29T05:32:33;33.00;;;7.55;;
24030;SDS011;12240;51.142;22.486;2023-04-29T05:35:02;35.80;;;7.10;;
24030;SDS011;12240;51.142;22.486;2023-04-29T05:37:34;44.20;;;8.25;;
24030;SDS011;12240;51.142;22.486;2023-04-29T05:40:21;33.28;;;6.82;;
24030;SDS011;12240;51.142;22.486;2023-04-29T05:42:53;40.67;;;8.45;;
24030;SDS011;12240;51.142;22.486;2023-04-29T05:45:22;38.60;;;7.80;;
24030;SDS011;12240;51.142;22.486;2023-04-29T05:47:50;46.05;;;8.85;;
24030;SDS011;12240;51.142;22.486;2023-04-29T05:50:19;29.77;;;6.70;;
24030;SDS011;12240;51.142;22.486;2023-04-29T05:52:47;42.80;;;8.70;;
24030;SDS011;12240;51.142;22.486;2023-04-29T05:55:15;25.67;;;5.75;;
24030;SDS011;12240;51.142;22.486;2023-04-29T05:57:43;39.90;;;8.52;;
24030;SDS011;12240;51.142;22.486;2023-04-29T06:00:12;38.72;;;7.55;;
24030;SDS011;12240;51.142;22.486;2023-04-29T06:02:41;48.58;;;8.38;;
24030;SDS011;12240;51.142;22.486;2023-04-29T06:05:25;30.27;;;6.20;;
24030;SDS011;12240;51.142;22.486;2023-04-29T06:08:26;30.35;;;6.57;;
24030;SDS011;12240;51.142;22.486;2023-04-29T06:11:02;29.75;;;6.80;;
24030;SDS011;12240;51.142;22.486;2023-04-29T06:13:31;30.23;;;6.40;;
24030;SDS011;12240;51.142;22.486;2023-04-29T06:16:00;36.83;;;7.95;;
24030;SDS011;12240;51.142;22.486;2023-04-29T06:21:00;28.88;;;6.57;;
24030;SDS011;12240;51.142;22.486;2023-04-29T06:23:28;30.98;;;7.20;;
24030;SDS011;12240;51.142;22.486;2023-04-29T06:26:01;27.83;;;6.53;;
24030;SDS011;12240;51.142;22.486;2023-04-29T06:28:29;31.50;;;7.13;;
24030;SDS011;12240;51.142;22.486;2023-04-29T06:30:58;29.02;;;6.65;;
24030;SDS011;12240;51.142;22.486;2023-04-29T06:33:26;33.95;;;7.55;;
24030;SDS011;12240;51.142;22.486;2023-04-29T06:35:56;31.67;;;7.07;;
24030;SDS011;12240;51.142;22.486;2023-04-29T06:38:43;43.15;;;9.07;;
24030;SDS011;12240;51.142;22.486;2023-04-29T06:41:32;30.70;;;6.30;;
24030;SDS011;12240;51.142;22.486;2023-04-29T06:44:13;31.42;;;7.05;;
24030;SDS011;12240;51.142;22.486;2023-04-29T06:49:41;31.40;;;7.03;;
24030;SDS011;12240;51.142;22.486;2023-04-29T06:52:12;30.33;;;7.22;;
24030;SDS011;12240;51.142;22.486;2023-04-29T06:54:42;32.15;;;7.80;;
24030;SDS011;12240;51.142;22.486;2023-04-29T06:57:11;26.13;;;6.32;;
24030;SDS011;12240;51.142;22.486;2023-04-29T06:59:39;35.72;;;7.20;;
24030;SDS011;12240;51.142;22.486;2023-04-29T07:02:07;21.98;;;6.78;;
24030;SDS011;12240;51.142;22.486;2023-04-29T07:04:35;27.45;;;6.22;;
24030;SDS011;12240;51.142;22.486;2023-04-29T07:07:03;22.95;;;6.75;;
24030;SDS011;12240;51.142;22.486;2023-04-29T07:09:33;19.13;;;5.95;;
24030;SDS011;12240;51.142;22.486;2023-04-29T07:12:03;22.00;;;6.53;;
24030;SDS011;12240;51.142;22.486;2023-04-29T07:14:32;28.73;;;6.78;;
24030;SDS011;12240;51.142;22.486;2023-04-29T07:17:00;43.13;;;8.27;;
24030;SDS011;12240;51.142;22.486;2023-04-29T07:19:30;25.70;;;6.97;;
24030;SDS011;12240;51.142;22.486;2023-04-29T07:21:58;20.13;;;5.88;;
24030;SDS011;12240;51.142;22.486;2023-04-29T07:24:26;20.35;;;6.20;;
24030;SDS011;12240;51.142;22.486;2023-04-29T07:26:54;42.85;;;9.32;;
24030;SDS011;12240;51.142;22.486;2023-04-29T07:29:28;22.05;;;6.13;;
24030;SDS011;12240;51.142;22.486;2023-04-29T07:31:56;33.22;;;8.32;;
24030;SDS011;12240;51.142;22.486;2023-04-29T07:34:26;20.08;;;5.75;;
24030;SDS011;12240;51.142;22.486;2023-04-29T07:36:54;24.73;;;7.05;;
24030;SDS011;12240;51.142;22.486;2023-04-29T07:39:23;24.52;;;6.95;;
24030;SDS011;12240;51.142;22.486;2023-04-29T07:44:23;15.18;;;5.28;;
24030;SDS011;12240;51.142;22.486;2023-04-29T07:46:51;26.23;;;8.35;;
24030;SDS011;12240;51.142;22.486;2023-04-29T07:49:19;19.30;;;6.28;;
24030;SDS011;12240;51.142;22.486;2023-04-29T07:51:47;25.02;;;7.90;;
24030;SDS011;12240;51.142;22.486;2023-04-29T07:54:16;24.00;;;6.97;;
24030;SDS011;12240;51.142;22.486;2023-04-29T07:56:48;26.75;;;7.80;;
24030;SDS011;12240;51.142;22.486;2023-04-29T07:59:19;20.52;;;6.28;;
24030;SDS011;12240;51.142;22.486;2023-04-29T08:01:47;26.65;;;7.40;;
24030;SDS011;12240;51.142;22.486;2023-04-29T08:04:15;21.77;;;7.22;;
24030;SDS011;12240;51.142;22.486;2023-04-29T08:06:54;26.60;;;8.18;;
24030;SDS011;12240;51.142;22.486;2023-04-29T08:09:22;26.45;;;7.43;;
24030;SDS011;12240;51.142;22.486;2023-04-29T08:11:51;33.33;;;9.07;;
24030;SDS011;12240;51.142;22.486;2023-04-29T08:14:19;18.02;;;5.60;;
24030;SDS011;12240;51.142;22.486;2023-04-29T08:16:47;28.88;;;7.97;;
24030;SDS011;12240;51.142;22.486;2023-04-29T08:19:15;14.85;;;4.60;;
24030;SDS011;12240;51.142;22.486;2023-04-29T08:21:44;27.10;;;7.93;;
24030;SDS011;12240;51.142;22.486;2023-04-29T08:24:12;20.88;;;6.25;;
24030;SDS011;12240;51.142;22.486;2023-04-29T08:26:40;30.00;;;8.60;;
24030;SDS011;12240;51.142;22.486;2023-04-29T08:29:08;25.30;;;7.47;;
24030;SDS011;12240;51.142;22.486;2023-04-29T08:31:36;30.42;;;8.10;;
24030;SDS011;12240;51.142;22.486;2023-04-29T08:34:04;19.25;;;6.60;;
24030;SDS011;12240;51.142;22.486;2023-04-29T08:36:32;22.27;;;6.50;;
24030;SDS011;12240;51.142;22.486;2023-04-29T08:39:03;24.92;;;9.30;;
24030;SDS011;12240;51.142;22.486;2023-04-29T08:41:31;47.95;;;17.08;;
24030;SDS011;12240;51.142;22.486;2023-04-29T08:43:59;32.65;;;10.07;;
24030;SDS011;12240;51.142;22.486;2023-04-29T08:46:27;57.85;;;19.00;;
24030;SDS011;12240;51.142;22.486;2023-04-29T08:48:56;27.88;;;8.48;;
24030;SDS011;12240;51.142;22.486;2023-04-29T08:51:25;29.63;;;8.75;;
24030;SDS011;12240;51.142;22.486;2023-04-29T08:53:55;70.18;;;24.40;;
24030;SDS011;12240;51.142;22.486;2023-04-29T08:56:23;43.20;;;15.48;;
24030;SDS011;12240;51.142;22.486;2023-04-29T08:58:54;48.20;;;16.35;;
24030;SDS011;12240;51.142;22.486;2023-04-29T09:01:28;41.13;;;13.45;;
24030;SDS011;12240;51.142;22.486;2023-04-29T09:06:37;49.28;;;12.02;;
24030;SDS011;12240;51.142;22.486;2023-04-29T09:09:05;36.92;;;9.43;;
24030;SDS011;12240;51.142;22.486;2023-04-29T09:11:34;26.73;;;7.25;;
24030;SDS011;12240;51.142;22.486;2023-04-29T09:14:04;31.48;;;7.85;;
24030;SDS011;12240;51.142;22.486;2023-04-29T09:16:32;46.33;;;12.40;;
24030;SDS011;12240;51.142;22.486;2023-04-29T09:19:03;53.55;;;19.30;;
24030;SDS011;12240;51.142;22.486;2023-04-29T09:21:31;49.65;;;11.45;;
24030;SDS011;12240;51.142;22.486;2023-04-29T09:24:01;33.15;;;8.77;;
24030;SDS011;12240;51.142;22.486;2023-04-29T09:26:35;40.35;;;9.50;;
24030;SDS011;12240;51.142;22.486;2023-04-29T09:29:12;30.83;;;7.65;;
24030;SDS011;12240;51.142;22.486;2023-04-29T09:31:42;46.83;;;10.82;;
24030;SDS011;12240;51.142;22.486;2023-04-29T09:34:12;29.90;;;7.57;;
24030;SDS011;12240;51.142;22.486;2023-04-29T09:36:45;35.80;;;8.98;;
24030;SDS011;12240;51.142;22.486;2023-04-29T09:44:20;29.63;;;7.43;;
24030;SDS011;12240;51.142;22.486;2023-04-29T09:47:00;32.30;;;7.97;;
24030;SDS011;12240;51.142;22.486;2023-04-29T09:49:42;27.48;;;7.55;;
24030;SDS011;12240;51.142;22.486;2023-04-29T09:52:16;31.60;;;8.10;;
24030;SDS011;12240;51.142;22.486;2023-04-29T09:54:44;28.02;;;7.95;;
24030;SDS011;12240;51.142;22.486;2023-04-29T09:57:13;29.23;;;7.40;;
24030;SDS011;12240;51.142;22.486;2023-04-29T09:59:42;39.88;;;8.30;;
24030;SDS011;12240;51.142;22.486;2023-04-29T10:04:45;31.40;;;8.48;;
24030;SDS011;12240;51.142;22.486;2023-04-29T10:07:20;27.85;;;7.68;;
24030;SDS011;12240;51.142;22.486;2023-04-29T10:09:49;29.98;;;8.30;;
24030;SDS011;12240;51.142;22.486;2023-04-29T10:12:18;27.15;;;7.70;;
24030;SDS011;12240;51.142;22.486;2023-04-29T10:14:59;28.55;;;7.90;;
24030;SDS011;12240;51.142;22.486;2023-04-29T10:17:50;38.13;;;10.90;;
24030;SDS011;12240;51.142;22.486;2023-04-29T10:20:26;26.48;;;7.63;;
24030;SDS011;12240;51.142;22.486;2023-04-29T10:22:55;23.33;;;7.50;;
24030;SDS011;12240;51.142;22.486;2023-04-29T10:25:25;19.27;;;6.50;;
24030;SDS011;12240;51.142;22.486;2023-04-29T10:27:54;15.77;;;7.18;;
24030;SDS011;12240;51.142;22.486;2023-04-29T10:30:24;9.55;;;5.60;;
24030;SDS011;12240;51.142;22.486;2023-04-29T10:32:53;13.25;;;7.35;;
24030;SDS011;12240;51.142;22.486;2023-04-29T10:35:25;9.00;;;5.45;;
24030;SDS011;12240;51.142;22.486;2023-04-29T10:37:54;9.73;;;5.65;;
24030;SDS011;12240;51.142;22.486;2023-04-29T10:42:55;8.93;;;5.20;;
24030;SDS011;12240;51.142;22.486;2023-04-29T10:45:27;10.32;;;4.35;;
24030;SDS011;12240;51.142;22.486;2023-04-29T10:50:39;9.88;;;3.03;;
24030;SDS011;12240;51.142;22.486;2023-04-29T10:53:17;8.13;;;3.85;;
24030;SDS011;12240;51.142;22.486;2023-04-29T10:55:46;8.35;;;3.78;;
24030;SDS011;12240;51.142;22.486;2023-04-29T11:01:10;6.05;;;3.13;;
24030;SDS011;12240;51.142;22.486;2023-04-29T11:06:37;6.35;;;3.33;;
24030;SDS011;12240;51.142;22.486;2023-04-29T11:14:21;7.43;;;3.45;;
24030;SDS011;12240;51.142;22.486;2023-04-29T11:17:16;7.95;;;3.50;;
24030;SDS011;12240;51.142;22.486;2023-04-29T11:19:49;10.45;;;2.92;;
24030;SDS011;12240;51.142;22.486;2023-04-29T11:22:26;7.18;;;3.45;;
24030;SDS011;12240;51.142;22.486;2023-04-29T11:25:04;9.45;;;3.33;;
24030;SDS011;12240;51.142;22.486;2023-04-29T11:27:37;10.65;;;3.78;;
24030;SDS011;12240;51.142;22.486;2023-04-29T11:30:07;11.02;;;3.60;;
24030;SDS011;12240;51.142;22.486;2023-04-29T11:32:37;12.00;;;3.05;;
24030;SDS011;12240;51.142;22.486;2023-04-29T11:37:38;12.38;;;3.10;;
24030;SDS011;12240;51.142;22.486;2023-04-29T11:40:08;8.70;;;2.90;;
24030;SDS011;12240;51.142;22.486;2023-04-29T11:42:45;8.80;;;3.10;;
24030;SDS011;12240;51.142;22.486;2023-04-29T11:45:19;6.18;;;2.75;;
24030;SDS011;12240;51.142;22.486;2023-04-29T11:47:47;5.45;;;2.90;;
24030;SDS011;12240;51.142;22.486;2023-04-29T11:50:18;6.80;;;2.90;;
24030;SDS011;12240;51.142;22.486;2023-04-29T11:52:47;6.88;;;3.25;;
24030;SDS011;12240;51.142;22.486;2023-04-29T11:55:16;6.25;;;2.65;;
24030;SDS011;12240;51.142;22.486;2023-04-29T11:57:47;5.85;;;3.15;;
24030;SDS011;12240;51.142;22.486;2023-04-29T12:00:18;6.15;;;2.97;;
24030;SDS011;12240;51.142;22.486;2023-04-29T12:02:46;7.07;;;2.85;;
24030;SDS011;12240;51.142;22.486;2023-04-29T12:05:15;7.03;;;2.65;;
24030;SDS011;12240;51.142;22.486;2023-04-29T12:07:47;4.57;;;2.83;;
24030;SDS011;12240;51.142;22.486;2023-04-29T12:10:17;4.53;;;2.53;;
24030;SDS011;12240;51.142;22.486;2023-04-29T12:12:47;5.72;;;3.15;;
24030;SDS011;12240;51.142;22.486;2023-04-29T12:15:15;9.43;;;3.20;;
24030;SDS011;12240;51.142;22.486;2023-04-29T12:17:44;8.05;;;3.17;;
24030;SDS011;12240;51.142;22.486;2023-04-29T12:20:13;5.78;;;3.30;;
24030;SDS011;12240;51.142;22.486;2023-04-29T12:22:42;5.78;;;2.97;;
24030;SDS011;12240;51.142;22.486;2023-04-29T12:25:10;6.95;;;2.85;;
24030;SDS011;12240;51.142;22.486;2023-04-29T12:27:39;11.00;;;3.08;;
24030;SDS011;12240;51.142;22.486;2023-04-29T12:30:09;5.63;;;2.95;;
24030;SDS011;12240;51.142;22.486;2023-04-29T12:32:39;21.50;;;6.03;;
24030;SDS011;12240;51.142;22.486;2023-04-29T12:35:14;9.65;;;3.78;;
24030;SDS011;12240;51.142;22.486;2023-04-29T12:37:48;10.02;;;3.60;;
24030;SDS011;12240;51.142;22.486;2023-04-29T12:40:17;6.47;;;3.25;;
24030;SDS011;12240;51.142;22.486;2023-04-29T12:42:47;18.48;;;6.15;;
24030;SDS011;12240;51.142;22.486;2023-04-29T12:45:28;9.05;;;3.45;;
24030;SDS011;12240;51.142;22.486;2023-04-29T12:47:59;8.65;;;3.08;;
24030;SDS011;12240;51.142;22.486;2023-04-29T12:50:32;6.70;;;2.85;;
24030;SDS011;12240;51.142;22.486;2023-04-29T12:53:04;15.82;;;4.38;;
24030;SDS011;12240;51.142;22.486;2023-04-29T12:55:35;8.65;;;2.95;;
24030;SDS011;12240;51.142;22.486;2023-04-29T12:58:05;7.07;;;3.08;;
24030;SDS011;12240;51.142;22.486;2023-04-29T13:00:37;7.22;;;3.33;;
24030;SDS011;12240;51.142;22.486;2023-04-29T13:03:05;4.35;;;2.85;;
24030;SDS011;12240;51.142;22.486;2023-04-29T13:05:35;8.50;;;4.10;;
24030;SDS011;12240;51.142;22.486;2023-04-29T13:08:03;9.02;;;3.72;;
24030;SDS011;12240;51.142;22.486;2023-04-29T13:10:33;9.18;;;4.20;;
24030;SDS011;12240;51.142;22.486;2023-04-29T13:13:02;5.95;;;4.00;;
24030;SDS011;12240;51.142;22.486;2023-04-29T13:15:30;28.20;;;6.75;;
24030;SDS011;12240;51.142;22.486;2023-04-29T13:17:59;5.65;;;3.78;;
24030;SDS011;12240;51.142;22.486;2023-04-29T13:20:29;9.05;;;3.58;;
24030;SDS011;12240;51.142;22.486;2023-04-29T13:22:58;8.27;;;4.10;;
24030;SDS011;12240;51.142;22.486;2023-04-29T13:25:26;8.93;;;3.55;;
24030;SDS011;12240;51.142;22.486;2023-04-29T13:27:55;28.58;;;7.32;;
24030;SDS011;12240;51.142;22.486;2023-04-29T13:30:23;8.77;;;3.30;;
24030;SDS011;12240;51.142;22.486;2023-04-29T13:32:51;7.13;;;3.15;;
24030;SDS011;12240;51.142;22.486;2023-04-29T13:35:25;11.75;;;3.28;;
24030;SDS011;12240;51.142;22.486;2023-04-29T13:37:54;5.28;;;2.90;;
24030;SDS011;12240;51.142;22.486;2023-04-29T13:40:22;7.88;;;3.08;;
24030;SDS011;12240;51.142;22.486;2023-04-29T13:45:33;9.43;;;3.20;;
24030;SDS011;12240;51.142;22.486;2023-04-29T13:48:06;15.52;;;5.40;;
24030;SDS011;12240;51.142;22.486;2023-04-29T13:50:55;9.23;;;5.30;;
24030;SDS011;12240;51.142;22.486;2023-04-29T13:53:44;15.95;;;5.57;;
24030;SDS011;12240;51.142;22.486;2023-04-29T13:56:15;12.35;;;4.78;;
24030;SDS011;12240;51.142;22.486;2023-04-29T13:58:46;9.18;;;4.32;;
24030;SDS011;12240;51.142;22.486;2023-04-29T14:01:19;12.52;;;4.18;;
24030;SDS011;12240;51.142;22.486;2023-04-29T14:03:51;8.88;;;4.68;;
24030;SDS011;12240;51.142;22.486;2023-04-29T14:06:20;9.73;;;3.97;;
24030;SDS011;12240;51.142;22.486;2023-04-29T14:08:48;8.15;;;3.55;;
24030;SDS011;12240;51.142;22.486;2023-04-29T14:11:16;7.60;;;3.40;;
24030;SDS011;12240;51.142;22.486;2023-04-29T14:13:45;7.18;;;3.72;;
24030;SDS011;12240;51.142;22.486;2023-04-29T14:16:13;6.18;;;3.35;;
24030;SDS011;12240;51.142;22.486;2023-04-29T14:18:43;8.38;;;3.58;;
24030;SDS011;12240;51.142;22.486;2023-04-29T14:21:12;10.75;;;3.15;;
24030;SDS011;12240;51.142;22.486;2023-04-29T14:23:40;8.85;;;3.58;;
24030;SDS011;12240;51.142;22.486;2023-04-29T14:26:08;7.57;;;3.50;;
24030;SDS011;12240;51.142;22.486;2023-04-29T14:28:54;5.22;;;3.22;;
24030;SDS011;12240;51.142;22.486;2023-04-29T14:31:26;9.50;;;2.75;;
24030;SDS011;12240;51.142;22.486;2023-04-29T14:34:04;3.65;;;2.92;;
24030;SDS011;12240;51.142;22.486;2023-04-29T14:36:32;6.45;;;3.92;;
24030;SDS011;12240;51.142;22.486;2023-04-29T14:39:00;6.03;;;3.20;;
24030;SDS011;12240;51.142;22.486;2023-04-29T14:41:30;6.70;;;3.72;;
24030;SDS011;12240;51.142;22.486;2023-04-29T14:43:58;11.00;;;3.55;;
24030;SDS011;12240;51.142;22.486;2023-04-29T14:46:26;9.93;;;4.13;;
24030;SDS011;12240;51.142;22.486;2023-04-29T14:48:55;13.23;;;3.95;;
24030;SDS011;12240;51.142;22.486;2023-04-29T14:51:24;7.18;;;3.72;;
24030;SDS011;12240;51.142;22.486;2023-04-29T14:53:53;6.05;;;3.75;;
24030;SDS011;12240;51.142;22.486;2023-04-29T14:56:21;9.35;;;3.53;;
24030;SDS011;12240;51.142;22.486;2023-04-29T14:58:50;10.57;;;4.55;;
24030;SDS011;12240;51.142;22.486;2023-04-29T15:01:18;9.55;;;3.78;;
24030;SDS011;12240;51.142;22.486;2023-04-29T15:03:46;15.52;;;5.30;;
24030;SDS011;12240;51.142;22.486;2023-04-29T15:06:14;7.03;;;4.18;;
24030;SDS011;12240;51.142;22.486;2023-04-29T15:08:43;16.13;;;5.13;;
24030;SDS011;12240;51.142;22.486;2023-04-29T15:11:11;8.23;;;3.35;;
24030;SDS011;12240;51.142;22.486;2023-04-29T15:13:39;11.32;;;3.55;;
24030;SDS011;12240;51.142;22.486;2023-04-29T15:16:08;6.80;;;2.67;;
24030;SDS011;12240;51.142;22.486;2023-04-29T15:18:36;6.65;;;1.95;;
24030;SDS011;12240;51.142;22.486;2023-04-29T15:21:04;5.03;;;2.53;;
24030;SDS011;12240;51.142;22.486;2023-04-29T15:23:32;7.50;;;2.60;;
24030;SDS011;12240;51.142;22.486;2023-04-29T15:26:01;6.07;;;3.00;;
24030;SDS011;12240;51.142;22.486;2023-04-29T15:28:29;7.80;;;3.13;;
24030;SDS011;12240;51.142;22.486;2023-04-29T15:30:57;6.78;;;2.72;;
24030;SDS011;12240;51.142;22.486;2023-04-29T15:33:27;9.18;;;2.75;;
24030;SDS011;12240;51.142;22.486;2023-04-29T15:35:56;6.60;;;2.83;;
24030;SDS011;12240;51.142;22.486;2023-04-29T15:38:24;10.85;;;3.17;;
24030;SDS011;12240;51.142;22.486;2023-04-29T15:40:53;8.32;;;2.65;;
24030;SDS011;12240;51.142;22.486;2023-04-29T15:43:27;9.73;;;2.90;;
24030;SDS011;12240;51.142;22.486;2023-04-29T15:45:57;4.13;;;2.92;;
24030;SDS011;12240;51.142;22.486;2023-04-29T15:48:26;5.68;;;3.20;;